TISX/STX METAR and TAF weather

Enter ICAO airport designator
Station Type Date Time Source
TISX METAR 2020/11/25 22:53 UTC NOAA

TISX 252253Z 01005KT 10SM SCT020 26/22 A2996


Station Type Date Time Source
TISX Decoded METAR 2020/11/25 22:53 UTC NOAA

Christiansted, Henry E. Rohlsen Airport, Virgin Islands (TISX) 17-42N 064-48W 17M
Nov 25, 2020 - 05:53 PM EST / 2020.11.25 2253 UTC
Wind: from the N (010 degrees) at 6 MPH (5 KT):0
Visibility: 10 mile(s):0
Sky conditions: partly cloudy
Temperature: 78 F (26 C)
Dew Point: 71 F (22 C)
Relative Humidity: 78%
Pressure (altimeter): 29.96 in. Hg (1014 hPa)
ob: TISX 252253Z 01005KT 10SM SCT020 26/22 A2996
cycle: 23

Station Type Date Time Source
TISX TAF 2020/11/25 18:25 UTC NOAA

TAF TISX 251720Z 2518/2618 10010KT P6SM FEW030 SCT060
FM252200 03005KT P6SM FEW030 FEW050
FM261400 08010KT P6SM FEW030 FEW050

Example: see airport list